Raciborz, Poland
Current Conditions -  °F | °C
As of 9:30 PM on Friday 19 Dec 2014 (Local Time) from LKMT Reporting Station
Broken Clouds Broken Clouds  
Wind Chill: 52°   Ceiling: 4100
Heat Index: 52°   Visibility: 6mi
Dew Point: 43°   Wind: 16mph
Humidity: 71%   Direction: 220°SW
Pressure: 29.88"   Gusts: NA
Location:  50.09°N, 18.22°E
Report Text: LKMT 192030Z 22014KT 9999 BKN041 11/06 Q1012 NOSIG
Loading
Personal Weather Stations






























Interactive Weather Map New forecast layout! Learn more

10-Day Weather Forecast

Advertisements
Track Severe Weather on mobile